sensor_id;sensor_type;location;lat;lon;timestamp;pressure;altitude;pressure_sealevel;temperature;humidity
47809;BME280;33573;38.790;-77.084;2023-11-21T00:02:08;102704.86;;;18.61;29.47
47809;BME280;33573;38.790;-77.084;2023-11-21T00:04:33;102713.14;;;18.27;29.97
47809;BME280;33573;38.790;-77.084;2023-11-21T00:06:59;102715.53;;;18.18;30.07
47809;BME280;33573;38.790;-77.084;2023-11-21T00:09:24;102721.75;;;17.65;30.61
47809;BME280;33573;38.790;-77.084;2023-11-21T00:11:49;102725.29;;;18.12;30.17
47809;BME280;33573;38.790;-77.084;2023-11-21T00:14:15;102726.00;;;18.89;29.16
47809;BME280;33573;38.790;-77.084;2023-11-21T00:16:40;102731.14;;;18.26;29.72
47809;BME280;33573;38.790;-77.084;2023-11-21T00:19:06;102735.89;;;17.90;30.53
47809;BME280;33573;38.790;-77.084;2023-11-21T00:21:31;102739.50;;;17.72;30.79
47809;BME280;33573;38.790;-77.084;2023-11-21T00:23:57;102743.72;;;18.14;29.60
47809;BME280;33573;38.790;-77.084;2023-11-21T00:26:22;102743.86;;;18.24;29.65
47809;BME280;33573;38.790;-77.084;2023-11-21T00:28:48;102744.65;;;17.97;30.40
47809;BME280;33573;38.790;-77.084;2023-11-21T00:31:13;102743.71;;;18.01;29.82
47809;BME280;33573;38.790;-77.084;2023-11-21T00:33:38;102746.65;;;17.97;30.71
47809;BME280;33573;38.790;-77.084;2023-11-21T00:36:04;102760.21;;;18.05;30.41
47809;BME280;33573;38.790;-77.084;2023-11-21T00:38:30;102774.04;;;17.86;30.42
47809;BME280;33573;38.790;-77.084;2023-11-21T00:40:55;102789.47;;;18.77;29.03
47809;BME280;33573;38.790;-77.084;2023-11-21T00:43:20;102798.74;;;18.60;29.35
47809;BME280;33573;38.790;-77.084;2023-11-21T00:45:46;102796.32;;;19.04;28.63
47809;BME280;33573;38.790;-77.084;2023-11-21T00:48:11;102787.10;;;19.01;29.14
47809;BME280;33573;38.790;-77.084;2023-11-21T00:50:37;102786.18;;;18.56;29.47
47809;BME280;33573;38.790;-77.084;2023-11-21T00:53:02;102782.56;;;18.06;30.18
47809;BME280;33573;38.790;-77.084;2023-11-21T00:55:28;102785.76;;;17.84;30.14
47809;BME280;33573;38.790;-77.084;2023-11-21T00:57:53;102779.87;;;17.81;30.24
47809;BME280;33573;38.790;-77.084;2023-11-21T01:00:19;102777.78;;;17.93;30.05
47809;BME280;33573;38.790;-77.084;2023-11-21T01:02:44;102776.18;;;18.15;29.81
47809;BME280;33573;38.790;-77.084;2023-11-21T01:05:09;102774.47;;;18.20;29.91
47809;BME280;33573;38.790;-77.084;2023-11-21T01:07:35;102774.56;;;18.49;29.50
47809;BME280;33573;38.790;-77.084;2023-11-21T01:10:00;102782.58;;;18.29;29.34
47809;BME280;33573;38.790;-77.084;2023-11-21T01:12:26;102785.33;;;17.82;30.14
47809;BME280;33573;38.790;-77.084;2023-11-21T01:14:51;102778.37;;;17.80;30.19
47809;BME280;33573;38.790;-77.084;2023-11-21T01:17:17;102772.92;;;18.25;29.84
47809;BME280;33573;38.790;-77.084;2023-11-21T01:19:42;102767.18;;;18.64;29.42
47809;BME280;33573;38.790;-77.084;2023-11-21T01:22:07;102767.42;;;18.63;29.07
47809;BME280;33573;38.790;-77.084;2023-11-21T01:24:33;102759.05;;;19.19;28.73
47809;BME280;33573;38.790;-77.084;2023-11-21T01:26:58;102754.43;;;18.38;29.19
47809;BME280;33573;38.790;-77.084;2023-11-21T01:29:24;102750.24;;;18.43;29.34
47809;BME280;33573;38.790;-77.084;2023-11-21T01:31:49;102738.84;;;18.30;29.49
47809;BME280;33573;38.790;-77.084;2023-11-21T01:34:14;102724.46;;;18.96;28.79
47809;BME280;33573;38.790;-77.084;2023-11-21T01:36:40;102735.55;;;18.82;29.10
47809;BME280;33573;38.790;-77.084;2023-11-21T01:39:05;102745.96;;;17.83;30.07
47809;BME280;33573;38.790;-77.084;2023-11-21T01:41:31;102750.03;;;17.92;29.65
47809;BME280;33573;38.790;-77.084;2023-11-21T01:43:57;102754.45;;;17.66;29.74
47809;BME280;33573;38.790;-77.084;2023-11-21T01:46:23;102762.48;;;18.42;29.02
47809;BME280;33573;38.790;-77.084;2023-11-21T01:48:48;102774.64;;;18.05;29.32
47809;BME280;33573;38.790;-77.084;2023-11-21T01:51:13;102773.65;;;18.44;28.67
47809;BME280;33573;38.790;-77.084;2023-11-21T01:53:39;102754.45;;;18.14;29.42
47809;BME280;33573;38.790;-77.084;2023-11-21T01:56:09;102738.19;;;19.37;28.05
47809;BME280;33573;38.790;-77.084;2023-11-21T01:58:30;102738.09;;;18.59;29.09
47809;BME280;33573;38.790;-77.084;2023-11-21T02:00:54;102730.74;;;18.07;29.71
47809;BME280;33573;38.790;-77.084;2023-11-21T02:03:20;102735.90;;;17.95;29.87
47809;BME280;33573;38.790;-77.084;2023-11-21T02:05:45;102735.20;;;18.16;29.86
47809;BME280;33573;38.790;-77.084;2023-11-21T02:08:11;102729.34;;;18.95;28.85
47809;BME280;33573;38.790;-77.084;2023-11-21T02:10:36;102724.75;;;18.40;28.94
47809;BME280;33573;38.790;-77.084;2023-11-21T02:13:02;102728.64;;;18.76;28.82
47809;BME280;33573;38.790;-77.084;2023-11-21T02:15:27;102726.84;;;18.38;29.32
47809;BME280;33573;38.790;-77.084;2023-11-21T02:17:53;102722.09;;;17.85;30.04
47809;BME280;33573;38.790;-77.084;2023-11-21T02:20:18;102718.15;;;18.17;29.65
47809;BME280;33573;38.790;-77.084;2023-11-21T02:25:09;102712.88;;;18.55;29.23
47809;BME280;33573;38.790;-77.084;2023-11-21T02:27:34;102710.83;;;18.17;29.59
47809;BME280;33573;38.790;-77.084;2023-11-21T02:30:00;102716.26;;;18.02;29.57
47809;BME280;33573;38.790;-77.084;2023-11-21T02:32:25;102722.56;;;18.29;29.41
47809;BME280;33573;38.790;-77.084;2023-11-21T02:34:51;102726.07;;;18.02;29.52
47809;BME280;33573;38.790;-77.084;2023-11-21T02:37:16;102729.45;;;17.96;29.96
47809;BME280;33573;38.790;-77.084;2023-11-21T02:39:41;102735.09;;;17.64;30.34
47809;BME280;33573;38.790;-77.084;2023-11-21T02:42:07;102738.93;;;17.44;30.28
47809;BME280;33573;38.790;-77.084;2023-11-21T02:44:32;102743.75;;;18.03;29.50
47809;BME280;33573;38.790;-77.084;2023-11-21T02:46:58;102754.29;;;17.82;29.89
47809;BME280;33573;38.790;-77.084;2023-11-21T02:49:23;102758.96;;;17.52;30.23
47809;BME280;33573;38.790;-77.084;2023-11-21T02:51:49;102765.02;;;17.92;29.53
47809;BME280;33573;38.790;-77.084;2023-11-21T02:54:14;102771.66;;;18.01;29.78
47809;BME280;33573;38.790;-77.084;2023-11-21T02:56:40;102769.48;;;17.97;29.99
47809;BME280;33573;38.790;-77.084;2023-11-21T02:59:05;102773.34;;;17.27;30.78
47809;BME280;33573;38.790;-77.084;2023-11-21T03:01:30;102778.38;;;18.02;29.59
47809;BME280;33573;38.790;-77.084;2023-11-21T03:03:56;102776.79;;;18.58;29.17
47809;BME280;33573;38.790;-77.084;2023-11-21T03:06:26;102773.90;;;18.01;29.73
47809;BME280;33573;38.790;-77.084;2023-11-21T03:08:47;102773.04;;;18.54;29.21
47809;BME280;33573;38.790;-77.084;2023-11-21T03:11:12;102783.76;;;18.51;29.16
47809;BME280;33573;38.790;-77.084;2023-11-21T03:13:38;102791.96;;;18.33;29.42
47809;BME280;33573;38.790;-77.084;2023-11-21T03:16:03;102791.05;;;18.60;29.07
47809;BME280;33573;38.790;-77.084;2023-11-21T03:18:29;102786.06;;;18.46;29.15
47809;BME280;33573;38.790;-77.084;2023-11-21T03:20:54;102788.61;;;18.83;28.55
47809;BME280;33573;38.790;-77.084;2023-11-21T03:23:19;102788.37;;;18.79;28.30
47809;BME280;33573;38.790;-77.084;2023-11-21T03:25:45;102786.80;;;18.18;29.34
47809;BME280;33573;38.790;-77.084;2023-11-21T03:28:10;102783.04;;;18.56;28.65
47809;BME280;33573;38.790;-77.084;2023-11-21T03:30:36;102782.49;;;16.92;30.62
47809;BME280;33573;38.790;-77.084;2023-11-21T03:33:01;102787.55;;;16.63;31.01
47809;BME280;33573;38.790;-77.084;2023-11-21T03:35:27;102794.52;;;16.35;31.29
47809;BME280;33573;38.790;-77.084;2023-11-21T03:37:52;102800.18;;;16.61;31.15
47809;BME280;33573;38.790;-77.084;2023-11-21T03:40:17;102801.72;;;16.38;31.42
47809;BME280;33573;38.790;-77.084;2023-11-21T03:42:43;102799.57;;;16.39;31.72
47809;BME280;33573;38.790;-77.084;2023-11-21T03:45:09;102797.36;;;16.38;31.53
47809;BME280;33573;38.790;-77.084;2023-11-21T03:47:34;102795.65;;;16.39;31.49
47809;BME280;33573;38.790;-77.084;2023-11-21T03:49:59;102795.17;;;16.36;31.47
47809;BME280;33573;38.790;-77.084;2023-11-21T03:52:25;102786.99;;;16.48;31.15
47809;BME280;33573;38.790;-77.084;2023-11-21T03:54:50;102783.70;;;16.29;31.37
47809;BME280;33573;38.790;-77.084;2023-11-21T03:57:16;102786.25;;;16.30;31.09
47809;BME280;33573;38.790;-77.084;2023-11-21T03:59:41;102788.35;;;16.26;31.34
47809;BME280;33573;38.790;-77.084;2023-11-21T04:02:06;102784.05;;;16.28;31.12
47809;BME280;33573;38.790;-77.084;2023-11-21T04:04:32;102780.28;;;16.06;31.63
47809;BME280;33573;38.790;-77.084;2023-11-21T04:06:57;102779.90;;;16.12;31.44
47809;BME280;33573;38.790;-77.084;2023-11-21T04:09:23;102782.73;;;16.10;31.20
47809;BME280;33573;38.790;-77.084;2023-11-21T04:11:48;102794.15;;;15.97;31.29
47809;BME280;33573;38.790;-77.084;2023-11-21T04:14:14;102792.57;;;16.23;30.81
47809;BME280;33573;38.790;-77.084;2023-11-21T04:16:39;102793.81;;;16.59;30.87
47809;BME280;33573;38.790;-77.084;2023-11-21T04:19:04;102787.43;;;15.98;31.26
47809;BME280;33573;38.790;-77.084;2023-11-21T04:21:30;102783.54;;;16.21;31.32
47809;BME280;33573;38.790;-77.084;2023-11-21T04:23:55;102790.45;;;15.99;31.05
47809;BME280;33573;38.790;-77.084;2023-11-21T04:26:21;102793.66;;;16.19;30.90
47809;BME280;33573;38.790;-77.084;2023-11-21T04:28:46;102794.77;;;15.74;31.01
47809;BME280;33573;38.790;-77.084;2023-11-21T04:31:12;102791.93;;;16.15;30.90
47809;BME280;33573;38.790;-77.084;2023-11-21T04:33:37;102794.52;;;16.04;31.02
47809;BME280;33573;38.790;-77.084;2023-11-21T04:36:03;102796.31;;;16.04;31.12
47809;BME280;33573;38.790;-77.084;2023-11-21T04:38:28;102795.64;;;16.13;30.54
47809;BME280;33573;38.790;-77.084;2023-11-21T04:40:53;102800.15;;;16.04;30.84
47809;BME280;33573;38.790;-77.084;2023-11-21T04:43:19;102800.91;;;15.78;31.17
47809;BME280;33573;38.790;-77.084;2023-11-21T04:45:44;102806.98;;;16.10;30.84
47809;BME280;33573;38.790;-77.084;2023-11-21T04:48:10;102804.94;;;16.07;30.88
47809;BME280;33573;38.790;-77.084;2023-11-21T04:50:35;102803.27;;;16.21;30.70
47809;BME280;33573;38.790;-77.084;2023-11-21T04:53:01;102803.28;;;16.27;30.48
47809;BME280;33573;38.790;-77.084;2023-11-21T04:55:26;102795.42;;;16.20;30.44
47809;BME280;33573;38.790;-77.084;2023-11-21T04:57:52;102792.44;;;15.83;30.84
47809;BME280;33573;38.790;-77.084;2023-11-21T05:00:17;102795.11;;;15.97;30.65
47809;BME280;33573;38.790;-77.084;2023-11-21T05:02:43;102795.63;;;16.05;30.57
47809;BME280;33573;38.790;-77.084;2023-11-21T05:05:09;102787.44;;;16.16;30.66
47809;BME280;33573;38.790;-77.084;2023-11-21T05:07:34;102785.92;;;15.53;30.27
47809;BME280;33573;38.790;-77.084;2023-11-21T05:09:59;102786.72;;;15.97;30.54
47809;BME280;33573;38.790;-77.084;2023-11-21T05:12:25;102781.40;;;15.79;30.85
47809;BME280;33573;38.790;-77.084;2023-11-21T05:14:50;102777.53;;;16.06;30.37
47809;BME280;33573;38.790;-77.084;2023-11-21T05:17:15;102779.72;;;15.73;30.70
47809;BME280;33573;38.790;-77.084;2023-11-21T05:19:41;102780.04;;;15.67;30.78
47809;BME280;33573;38.790;-77.084;2023-11-21T05:22:06;102781.83;;;15.56;30.94
47809;BME280;33573;38.790;-77.084;2023-11-21T05:24:32;102779.72;;;16.22;30.60
47809;BME280;33573;38.790;-77.084;2023-11-21T05:26:57;102780.58;;;15.77;30.55
47809;BME280;33573;38.790;-77.084;2023-11-21T05:29:23;102780.35;;;15.81;30.48
47809;BME280;33573;38.790;-77.084;2023-11-21T05:31:48;102787.99;;;15.74;30.51
47809;BME280;33573;38.790;-77.084;2023-11-21T05:34:13;102791.20;;;15.74;30.63
47809;BME280;33573;38.790;-77.084;2023-11-21T05:36:39;102794.09;;;15.52;30.82
47809;BME280;33573;38.790;-77.084;2023-11-21T05:39:04;102796.15;;;15.64;30.64
47809;BME280;33573;38.790;-77.084;2023-11-21T05:41:30;102801.94;;;15.82;30.79
47809;BME280;33573;38.790;-77.084;2023-11-21T05:43:55;102809.53;;;15.51;30.78
47809;BME280;33573;38.790;-77.084;2023-11-21T05:46:21;102813.61;;;15.43;31.01
47809;BME280;33573;38.790;-77.084;2023-11-21T05:48:46;102824.29;;;15.62;30.83
47809;BME280;33573;38.790;-77.084;2023-11-21T05:51:12;102827.86;;;15.75;30.33
47809;BME280;33573;38.790;-77.084;2023-11-21T05:53:37;102835.69;;;15.55;30.53
47809;BME280;33573;38.790;-77.084;2023-11-21T05:56:03;102834.91;;;15.53;30.54
47809;BME280;33573;38.790;-77.084;2023-11-21T05:58:28;102827.86;;;15.73;30.61
47809;BME280;33573;38.790;-77.084;2023-11-21T06:00:53;102819.15;;;15.48;30.58
47809;BME280;33573;38.790;-77.084;2023-11-21T06:03:19;102821.51;;;15.99;30.39
47809;BME280;33573;38.790;-77.084;2023-11-21T06:05:44;102812.64;;;15.94;30.50
47809;BME280;33573;38.790;-77.084;2023-11-21T06:08:10;102809.74;;;15.58;30.34
47809;BME280;33573;38.790;-77.084;2023-11-21T06:10:35;102810.62;;;15.51;30.44
47809;BME280;33573;38.790;-77.084;2023-11-21T06:13:01;102807.59;;;15.21;30.80
47809;BME280;33573;38.790;-77.084;2023-11-21T06:15:26;102802.95;;;16.14;30.23
47809;BME280;33573;38.790;-77.084;2023-11-21T06:17:52;102800.80;;;15.46;30.43
47809;BME280;33573;38.790;-77.084;2023-11-21T06:20:17;102801.18;;;15.97;30.46
47809;BME280;33573;38.790;-77.084;2023-11-21T06:22:43;102803.95;;;15.32;30.51
47809;BME280;33573;38.790;-77.084;2023-11-21T06:25:09;102807.78;;;15.54;30.23
47809;BME280;33573;38.790;-77.084;2023-11-21T06:27:34;102818.74;;;15.45;30.30
47809;BME280;33573;38.790;-77.084;2023-11-21T06:29:59;102824.47;;;15.77;29.91
47809;BME280;33573;38.790;-77.084;2023-11-21T06:32:24;102828.28;;;15.92;30.29
47809;BME280;33573;38.790;-77.084;2023-11-21T06:34:50;102820.88;;;15.61;30.16
47809;BME280;33573;38.790;-77.084;2023-11-21T06:37:15;102808.68;;;15.62;30.42
47809;BME280;33573;38.790;-77.084;2023-11-21T06:39:41;102806.79;;;15.16;30.53
47809;BME280;33573;38.790;-77.084;2023-11-21T06:42:06;102811.22;;;15.33;30.31
47809;BME280;33573;38.790;-77.084;2023-11-21T06:44:32;102807.71;;;15.83;30.02
47809;BME280;33573;38.790;-77.084;2023-11-21T06:46:57;102808.60;;;15.36;30.24
47809;BME280;33573;38.790;-77.084;2023-11-21T06:49:22;102808.93;;;15.74;29.85
47809;BME280;33573;38.790;-77.084;2023-11-21T06:51:48;102794.84;;;15.98;30.13
47809;BME280;33573;38.790;-77.084;2023-11-21T06:54:13;102780.93;;;15.12;30.65
47809;BME280;33573;38.790;-77.084;2023-11-21T06:56:39;102780.00;;;15.82;30.00
47809;BME280;33573;38.790;-77.084;2023-11-21T06:59:04;102777.95;;;15.19;30.52
47809;BME280;33573;38.790;-77.084;2023-11-21T07:01:30;102772.69;;;15.42;30.25
47809;BME280;33573;38.790;-77.084;2023-11-21T07:03:55;102766.07;;;15.36;30.36
47809;BME280;33573;38.790;-77.084;2023-11-21T07:06:21;102765.79;;;15.27;30.37
47809;BME280;33573;38.790;-77.084;2023-11-21T07:08:46;102757.40;;;15.19;30.49
47809;BME280;33573;38.790;-77.084;2023-11-21T07:11:12;102755.91;;;15.78;29.77
47809;BME280;33573;38.790;-77.084;2023-11-21T07:13:37;102749.14;;;15.23;30.40
47809;BME280;33573;38.790;-77.084;2023-11-21T07:16:03;102745.80;;;15.65;30.33
47809;BME280;33573;38.790;-77.084;2023-11-21T07:18:28;102738.75;;;15.49;30.41
47809;BME280;33573;38.790;-77.084;2023-11-21T07:20:53;102746.38;;;15.75;30.12
47809;BME280;33573;38.790;-77.084;2023-11-21T07:23:19;102744.47;;;15.52;30.22
47809;BME280;33573;38.790;-77.084;2023-11-21T07:25:44;102748.35;;;15.48;30.06
47809;BME280;33573;38.790;-77.084;2023-11-21T07:28:10;102750.80;;;15.57;30.04
47809;BME280;33573;38.790;-77.084;2023-11-21T07:30:35;102756.46;;;15.76;29.98
47809;BME280;33573;38.790;-77.084;2023-11-21T07:33:01;102754.48;;;15.39;30.23
47809;BME280;33573;38.790;-77.084;2023-11-21T07:35:26;102761.52;;;15.28;30.36
47809;BME280;33573;38.790;-77.084;2023-11-21T07:37:51;102774.94;;;15.44;30.19
47809;BME280;33573;38.790;-77.084;2023-11-21T07:40:17;102769.64;;;15.52;30.50
47809;BME280;33573;38.790;-77.084;2023-11-21T07:42:43;102760.89;;;15.62;30.28
47809;BME280;33573;38.790;-77.084;2023-11-21T07:45:09;102757.24;;;15.28;30.34
47809;BME280;33573;38.790;-77.084;2023-11-21T07:47:33;102748.07;;;15.33;30.54
47809;BME280;33573;38.790;-77.084;2023-11-21T07:49:59;102738.76;;;15.40;30.58
47809;BME280;33573;38.790;-77.084;2023-11-21T07:52:24;102735.76;;;15.36;30.28
47809;BME280;33573;38.790;-77.084;2023-11-21T07:54:50;102729.25;;;15.54;30.32
47809;BME280;33573;38.790;-77.084;2023-11-21T07:57:15;102715.79;;;15.41;30.42
47809;BME280;33573;38.790;-77.084;2023-11-21T07:59:41;102712.65;;;16.07;29.94
47809;BME280;33573;38.790;-77.084;2023-11-21T08:02:06;102703.24;;;15.15;30.82
47809;BME280;33573;38.790;-77.084;2023-11-21T08:04:31;102710.32;;;14.98;30.70
47809;BME280;33573;38.790;-77.084;2023-11-21T08:06:57;102731.68;;;15.32;30.61
47809;BME280;33573;38.790;-77.084;2023-11-21T08:09:22;102738.37;;;15.33;30.48
47809;BME280;33573;38.790;-77.084;2023-11-21T08:11:48;102747.35;;;15.43;30.29
47809;BME280;33573;38.790;-77.084;2023-11-21T08:14:13;102750.54;;;15.35;30.86
47809;BME280;33573;38.790;-77.084;2023-11-21T08:16:39;102759.39;;;15.42;30.72
47809;BME280;33573;38.790;-77.084;2023-11-21T08:19:04;102755.19;;;15.45;30.53
47809;BME280;33573;38.790;-77.084;2023-11-21T08:21:29;102743.90;;;14.99;31.01
47809;BME280;33573;38.790;-77.084;2023-11-21T08:23:55;102744.00;;;15.01;31.05
47809;BME280;33573;38.790;-77.084;2023-11-21T08:26:21;102749.97;;;14.87;31.10
47809;BME280;33573;38.790;-77.084;2023-11-21T08:28:46;102759.38;;;15.03;31.09
47809;BME280;33573;38.790;-77.084;2023-11-21T08:31:11;102754.02;;;15.20;30.91
47809;BME280;33573;38.790;-77.084;2023-11-21T08:33:37;102743.12;;;14.93;31.09
47809;BME280;33573;38.790;-77.084;2023-11-21T08:36:07;102735.89;;;15.12;31.09
47809;BME280;33573;38.790;-77.084;2023-11-21T08:38:28;102721.57;;;15.38;30.86
47809;BME280;33573;38.790;-77.084;2023-11-21T08:40:53;102710.65;;;14.49;31.35
47809;BME280;33573;38.790;-77.084;2023-11-21T08:43:19;102690.52;;;15.15;31.09
47809;BME280;33573;38.790;-77.084;2023-11-21T08:45:44;102688.17;;;14.98;31.19
47809;BME280;33573;38.790;-77.084;2023-11-21T08:48:09;102684.82;;;14.67;31.47
47809;BME280;33573;38.790;-77.084;2023-11-21T08:50:35;102678.22;;;14.81;31.40
47809;BME280;33573;38.790;-77.084;2023-11-21T08:53:00;102675.22;;;15.21;31.42
47809;BME280;33573;38.790;-77.084;2023-11-21T08:55:25;102674.49;;;14.86;31.42
47809;BME280;33573;38.790;-77.084;2023-11-21T08:57:51;102676.28;;;14.93;31.38
47809;BME280;33573;38.790;-77.084;2023-11-21T09:00:17;102677.03;;;14.80;31.57
47809;BME280;33573;38.790;-77.084;2023-11-21T09:02:42;102675.51;;;14.74;31.26
47809;BME280;33573;38.790;-77.084;2023-11-21T09:05:08;102673.25;;;14.71;31.78
47809;BME280;33573;38.790;-77.084;2023-11-21T09:07:33;102678.39;;;14.98;31.31
47809;BME280;33573;38.790;-77.084;2023-11-21T09:09:58;102678.77;;;14.79;31.28
47809;BME280;33573;38.790;-77.084;2023-11-21T09:12:24;102674.24;;;14.97;31.34
47809;BME280;33573;38.790;-77.084;2023-11-21T09:14:49;102672.62;;;14.85;31.50
47809;BME280;33573;38.790;-77.084;2023-11-21T09:17:15;102663.33;;;14.77;31.67
47809;BME280;33573;38.790;-77.084;2023-11-21T09:19:40;102652.30;;;14.84;31.51
47809;BME280;33573;38.790;-77.084;2023-11-21T09:22:06;102638.93;;;14.90;31.41
47809;BME280;33573;38.790;-77.084;2023-11-21T09:24:31;102633.91;;;14.97;31.38
47809;BME280;33573;38.790;-77.084;2023-11-21T09:26:56;102627.90;;;14.59;31.64
47809;BME280;33573;38.790;-77.084;2023-11-21T09:29:22;102636.03;;;14.54;31.59
47809;BME280;33573;38.790;-77.084;2023-11-21T09:31:47;102635.28;;;14.85;31.52
47809;BME280;33573;38.790;-77.084;2023-11-21T09:34:13;102632.59;;;14.92;31.38
47809;BME280;33573;38.790;-77.084;2023-11-21T09:36:38;102637.27;;;14.89;31.47
47809;BME280;33573;38.790;-77.084;2023-11-21T09:39:04;102643.98;;;14.73;31.54
47809;BME280;33573;38.790;-77.084;2023-11-21T09:41:34;102636.80;;;14.80;31.57
47809;BME280;33573;38.790;-77.084;2023-11-21T09:43:57;102626.63;;;14.60;31.54
47809;BME280;33573;38.790;-77.084;2023-11-21T09:46:21;102631.58;;;14.76;31.28
47809;BME280;33573;38.790;-77.084;2023-11-21T09:48:47;102633.72;;;14.82;31.41
47809;BME280;33573;38.790;-77.084;2023-11-21T09:51:11;102645.82;;;14.71;31.67
47809;BME280;33573;38.790;-77.084;2023-11-21T09:53:36;102646.03;;;14.69;31.73
47809;BME280;33573;38.790;-77.084;2023-11-21T09:56:02;102644.79;;;14.51;31.95
47809;BME280;33573;38.790;-77.084;2023-11-21T09:58:27;102640.24;;;14.57;31.81
47809;BME280;33573;38.790;-77.084;2023-11-21T10:00:54;102638.52;;;14.39;31.76
47809;BME280;33573;38.790;-77.084;2023-11-21T10:03:18;102636.32;;;14.56;31.79
47809;BME280;33573;38.790;-77.084;2023-11-21T10:05:45;102641.36;;;14.77;31.39
47809;BME280;33573;38.790;-77.084;2023-11-21T10:08:10;102652.35;;;15.13;31.03
47809;BME280;33573;38.790;-77.084;2023-11-21T10:10:35;102646.63;;;14.97;30.82
47809;BME280;33573;38.790;-77.084;2023-11-21T10:13:03;102641.38;;;15.41;30.40
47809;BME280;33573;38.790;-77.084;2023-11-21T10:15:25;102643.54;;;15.61;30.49
47809;BME280;33573;38.790;-77.084;2023-11-21T10:17:52;102639.99;;;15.30;30.40
47809;BME280;33573;38.790;-77.084;2023-11-21T10:20:17;102632.41;;;15.76;30.31
47809;BME280;33573;38.790;-77.084;2023-11-21T10:22:43;102620.83;;;15.84;30.26
47809;BME280;33573;38.790;-77.084;2023-11-21T10:25:08;102608.98;;;15.76;30.48
47809;BME280;33573;38.790;-77.084;2023-11-21T10:27:33;102595.09;;;15.97;30.31
47809;BME280;33573;38.790;-77.084;2023-11-21T10:29:58;102582.13;;;15.65;30.52
47809;BME280;33573;38.790;-77.084;2023-11-21T10:32:28;102570.27;;;15.99;30.24
47809;BME280;33573;38.790;-77.084;2023-11-21T10:34:57;102573.31;;;16.20;30.06
47809;BME280;33573;38.790;-77.084;2023-11-21T10:37:15;102563.30;;;16.08;30.31
47809;BME280;33573;38.790;-77.084;2023-11-21T10:39:40;102567.23;;;16.07;30.40
47809;BME280;33573;38.790;-77.084;2023-11-21T10:42:08;102570.88;;;16.17;30.37
47809;BME280;33573;38.790;-77.084;2023-11-21T10:44:31;102576.92;;;16.22;30.38
47809;BME280;33573;38.790;-77.084;2023-11-21T10:46:56;102583.49;;;16.45;30.22
47809;BME280;33573;38.790;-77.084;2023-11-21T10:49:22;102585.15;;;16.64;30.33
47809;BME280;33573;38.790;-77.084;2023-11-21T10:51:47;102575.32;;;16.01;30.65
47809;BME280;33573;38.790;-77.084;2023-11-21T10:54:13;102568.12;;;15.99;31.13
47809;BME280;33573;38.790;-77.084;2023-11-21T10:56:39;102565.67;;;15.97;31.11
47809;BME280;33573;38.790;-77.084;2023-11-21T10:59:04;102549.84;;;16.11;30.95
47809;BME280;33573;38.790;-77.084;2023-11-21T11:01:29;102550.31;;;16.37;30.66
47809;BME280;33573;38.790;-77.084;2023-11-21T11:03:54;102547.43;;;16.45;30.68
47809;BME280;33573;38.790;-77.084;2023-11-21T11:06:20;102550.34;;;16.61;30.57
47809;BME280;33573;38.790;-77.084;2023-11-21T11:08:47;102544.61;;;16.42;30.59
47809;BME280;33573;38.790;-77.084;2023-11-21T11:11:11;102541.75;;;16.32;30.78
47809;BME280;33573;38.790;-77.084;2023-11-21T11:13:37;102544.10;;;16.20;31.36
47809;BME280;33573;38.790;-77.084;2023-11-21T11:16:09;102549.03;;;16.01;31.73
47809;BME280;33573;38.790;-77.084;2023-11-21T11:18:28;102534.97;;;16.09;31.49
47809;BME280;33573;38.790;-77.084;2023-11-21T11:20:53;102543.65;;;16.47;31.02
47809;BME280;33573;38.790;-77.084;2023-11-21T11:23:31;102541.55;;;16.62;30.90
47809;BME280;33573;38.790;-77.084;2023-11-21T11:25:55;102527.75;;;16.83;30.72
47809;BME280;33573;38.790;-77.084;2023-11-21T11:28:12;102519.77;;;16.59;30.77
47809;BME280;33573;38.790;-77.084;2023-11-21T11:30:43;102517.88;;;16.56;30.92
47809;BME280;33573;38.790;-77.084;2023-11-21T11:33:07;102508.15;;;16.13;31.63
47809;BME280;33573;38.790;-77.084;2023-11-21T11:35:32;102500.28;;;16.14;31.98
47809;BME280;33573;38.790;-77.084;2023-11-21T11:37:51;102498.44;;;16.06;32.06
47809;BME280;33573;38.790;-77.084;2023-11-21T11:40:16;102491.38;;;16.09;31.93
47809;BME280;33573;38.790;-77.084;2023-11-21T11:45:18;102500.57;;;16.64;31.27
47809;BME280;33573;38.790;-77.084;2023-11-21T11:47:34;102502.47;;;16.37;31.10
47809;BME280;33573;38.790;-77.084;2023-11-21T11:50:02;102509.06;;;16.69;31.46
47809;BME280;33573;38.790;-77.084;2023-11-21T11:52:33;102505.43;;;16.31;32.11
47809;BME280;33573;38.790;-77.084;2023-11-21T11:54:49;102505.45;;;16.19;32.39
47809;BME280;33573;38.790;-77.084;2023-11-21T11:57:14;102504.85;;;16.16;32.37
47809;BME280;33573;38.790;-77.084;2023-11-21T12:02:05;102495.93;;;16.33;31.18
47809;BME280;33573;38.790;-77.084;2023-11-21T12:04:30;102493.83;;;16.54;29.94
47809;BME280;33573;38.790;-77.084;2023-11-21T12:06:56;102488.21;;;16.39;30.93
47809;BME280;33573;38.790;-77.084;2023-11-21T12:09:22;102481.46;;;16.82;30.68
47809;BME280;33573;38.790;-77.084;2023-11-21T12:11:47;102482.39;;;16.14;31.91
47809;BME280;33573;38.790;-77.084;2023-11-21T12:14:13;102476.80;;;15.83;32.20
47809;BME280;33573;38.790;-77.084;2023-11-21T12:16:38;102466.58;;;16.17;32.15
47809;BME280;33573;38.790;-77.084;2023-11-21T12:19:03;102462.12;;;16.16;32.02
47809;BME280;33573;38.790;-77.084;2023-11-21T12:21:29;102464.14;;;16.29;31.63
47809;BME280;33573;38.790;-77.084;2023-11-21T12:23:54;102458.03;;;16.49;31.54
47809;BME280;33573;38.790;-77.084;2023-11-21T12:26:25;102434.31;;;16.52;32.17
47809;BME280;33573;38.790;-77.084;2023-11-21T12:28:51;102423.77;;;16.30;32.55